Time;durP1;ratioP1;P1;durP2;ratioP2;P2;SDS_P1;SDS_P2;PMS_P1;PMS_P2;Temp;Humidity;BMP_temperature;BMP_pressure;BME280_temperature;BME280_humidity;BME280_pressure;Samples;Min_cycle;Max_cycle;Signal;HPM_P1;HPM_P2
2023/08/19 00:01:01;;;;;;;8.55;7.75;;;25.50;99.90;;;;;;5105302;28;20292;-66
2023/08/19 00:03:27;;;;;;;8.75;7.97;;;25.50;99.90;;;;;;5106251;28;20206;-66
2023/08/19 00:05:54;;;;;;;8.50;7.90;;;25.50;99.90;;;;;;5105265;28;20229;-66
2023/08/19 00:08:21;;;;;;;8.75;8.05;;;25.50;99.90;;;;;;5085445;28;20203;-67
2023/08/19 00:10:53;;;;;;;8.73;8.07;;;25.50;99.90;;;;;;5093454;28;20682;-66
2023/08/19 00:13:20;;;;;;;8.30;7.60;;;25.40;99.90;;;;;;5105088;28;20226;-66
2023/08/19 00:15:48;;;;;;;8.55;7.75;;;25.40;99.90;;;;;;5085039;28;20206;-66
2023/08/19 00:18:15;;;;;;;8.43;7.75;;;25.40;99.90;;;;;;5084752;28;20309;-67
2023/08/19 00:20:44;;;;;;;8.80;7.95;;;25.40;99.90;;;;;;5084652;28;20720;-67
2023/08/19 00:23:11;;;;;;;8.65;7.82;;;25.40;99.90;;;;;;5085153;28;20293;-67
2023/08/19 00:25:38;;;;;;;9.05;8.30;;;25.30;99.90;;;;;;5084695;28;20754;-67
2023/08/19 00:28:05;;;;;;;11.93;8.30;;;25.30;99.90;;;;;;5085366;28;20206;-67
2023/08/19 00:30:32;;;;;;;8.60;7.90;;;25.30;99.90;;;;;;5084974;28;20198;-67
2023/08/19 00:33:01;;;;;;;8.68;7.88;;;25.20;99.90;;;;;;5105514;28;20302;-67
2023/08/19 00:35:29;;;;;;;8.60;7.90;;;25.20;99.90;;;;;;5105457;28;20217;-67
2023/08/19 00:37:56;;;;;;;8.68;7.82;;;25.20;99.90;;;;;;5104842;28;20241;-67
2023/08/19 00:40:23;;;;;;;8.32;7.72;;;25.20;99.90;;;;;;5105079;28;20237;-67
2023/08/19 00:42:50;;;;;;;9.10;8.30;;;25.20;99.90;;;;;;5086479;28;20213;-67
2023/08/19 00:45:16;;;;;;;8.73;8.13;;;25.20;99.90;;;;;;5084514;28;20306;-67
2023/08/19 00:47:43;;;;;;;8.82;7.95;;;25.10;99.90;;;;;;5085182;28;20237;-67
2023/08/19 00:50:13;;;;;;;9.65;8.63;;;25.10;99.90;;;;;;5087475;28;20726;-67
2023/08/19 00:52:40;;;;;;;8.82;8.10;;;25.10;99.90;;;;;;5095496;27;20209;-67
2023/08/19 00:55:08;;;;;;;9.50;8.70;;;25.10;99.90;;;;;;5108768;28;20202;-67
2023/08/19 00:57:37;;;;;;;8.48;7.90;;;25.10;99.90;;;;;;5108866;28;20960;-67
2023/08/19 01:00:06;;;;;;;9.77;8.75;;;25.10;99.90;;;;;;5108719;28;20240;-67
2023/08/19 01:02:33;;;;;;;8.63;7.80;;;25.00;99.90;;;;;;5108624;28;20230;-67
2023/08/19 01:05:00;;;;;;;11.07;8.15;;;25.00;99.90;;;;;;5091539;28;20290;-67
2023/08/19 01:07:39;;;;;;;8.63;7.88;;;25.00;99.90;;;;;;5088209;28;20207;-67
2023/08/19 01:10:11;;;;;;;9.07;8.48;;;25.00;99.90;;;;;;5092968;28;20297;-67
2023/08/19 01:12:43;;;;;;;9.13;8.32;;;24.90;99.90;;;;;;5108726;28;20195;-67
2023/08/19 01:15:15;;;;;;;8.70;8.00;;;25.00;99.90;;;;;;5108744;28;20672;-67
2023/08/19 01:17:42;;;;;;;8.70;7.90;;;24.90;99.90;;;;;;5108408;28;20186;-67
2023/08/19 01:20:12;;;;;;;9.70;8.48;;;24.90;99.90;;;;;;5108691;28;20325;-67
2023/08/19 01:22:49;;;;;;;8.50;7.80;;;24.90;99.90;;;;;;5108260;28;20306;-67
2023/08/19 01:25:19;;;;;;;8.55;7.95;;;24.80;99.90;;;;;;5103614;28;20193;-67
2023/08/19 01:27:46;;;;;;;9.77;8.07;;;24.80;99.90;;;;;;5097885;28;20289;-67
2023/08/19 01:30:14;;;;;;;8.50;7.70;;;24.80;99.90;;;;;;5099766;28;20321;-67
2023/08/19 01:32:42;;;;;;;8.80;8.00;;;24.80;99.90;;;;;;5087640;28;20412;-67
2023/08/19 01:35:09;;;;;;;8.40;7.80;;;24.80;99.90;;;;;;5089610;28;20620;-67
2023/08/19 01:37:43;;;;;;;8.73;7.97;;;24.80;99.90;;;;;;5107550;28;20204;-67
2023/08/19 01:40:13;;;;;;;8.95;8.15;;;24.70;99.90;;;;;;5106881;28;20223;-67
2023/08/19 01:42:42;;;;;;;8.60;8.00;;;24.70;99.90;;;;;;5108055;28;20656;-67
2023/08/19 01:45:10;;;;;;;8.95;8.18;;;24.70;99.90;;;;;;5108222;28;20317;-67
2023/08/19 01:47:37;;;;;;;9.38;8.48;;;24.70;99.90;;;;;;5101501;28;20285;-67
2023/08/19 01:50:05;;;;;;;9.82;9.00;;;24.60;99.90;;;;;;5106141;27;20329;-67
2023/08/19 01:52:32;;;;;;;8.75;8.10;;;24.60;99.90;;;;;;5108082;28;20297;-67
2023/08/19 01:54:59;;;;;;;8.60;7.90;;;24.60;99.90;;;;;;5107873;28;20316;-67
2023/08/19 01:57:27;;;;;;;10.07;8.27;;;24.60;99.90;;;;;;5108162;27;20230;-67
2023/08/19 01:59:56;;;;;;;8.70;8.02;;;24.60;99.90;;;;;;5107196;28;20238;-67
2023/08/19 02:02:23;;;;;;;9.15;8.32;;;24.50;99.90;;;;;;5107111;28;20212;-67
2023/08/19 02:04:50;;;;;;;10.10;7.95;;;24.50;99.90;;;;;;5108292;28;21110;-67
2023/08/19 02:07:17;;;;;;;8.90;8.00;;;24.40;99.90;;;;;;5107640;28;20205;-67
2023/08/19 02:09:45;;;;;;;9.55;8.68;;;24.40;99.90;;;;;;5107872;28;20748;-67
2023/08/19 02:12:12;;;;;;;8.32;7.72;;;24.40;99.90;;;;;;5107317;28;20304;-67
2023/08/19 02:14:39;;;;;;;8.65;8.07;;;24.40;99.90;;;;;;5107463;28;20743;-67
2023/08/19 02:17:08;;;;;;;9.25;8.45;;;24.40;99.90;;;;;;5107714;28;20766;-67
2023/08/19 02:19:35;;;;;;;8.95;8.20;;;24.40;99.90;;;;;;5107549;28;20325;-67
2023/08/19 02:22:02;;;;;;;9.07;8.43;;;24.40;99.90;;;;;;5107318;28;20210;-67
2023/08/19 02:24:29;;;;;;;9.23;8.55;;;24.30;99.90;;;;;;5095192;28;20199;-67
2023/08/19 02:26:56;;;;;;;9.27;8.57;;;24.30;99.90;;;;;;5102598;28;20238;-67
2023/08/19 02:29:23;;;;;;;8.48;7.88;;;24.30;99.90;;;;;;5105912;28;20206;-67
2023/08/19 02:31:50;;;;;;;9.52;8.75;;;24.30;99.90;;;;;;5087063;28;20289;-67
2023/08/19 02:34:18;;;;;;;8.85;8.07;;;24.20;99.90;;;;;;5087869;28;20669;-67
2023/08/19 02:36:45;;;;;;;9.48;8.68;;;24.20;99.90;;;;;;5107069;28;20238;-67
2023/08/19 02:39:12;;;;;;;9.35;8.57;;;24.20;99.90;;;;;;5106774;28;20230;-67
2023/08/19 02:41:39;;;;;;;9.43;8.43;;;24.20;99.90;;;;;;5106735;28;20210;-67
2023/08/19 02:44:06;;;;;;;9.38;8.65;;;24.10;99.90;;;;;;5107369;28;20288;-67
2023/08/19 02:46:33;;;;;;;8.90;8.18;;;24.10;99.90;;;;;;5103789;28;20208;-67
2023/08/19 02:49:00;;;;;;;9.23;8.27;;;24.10;99.90;;;;;;5086166;28;20280;-67
2023/08/19 02:51:28;;;;;;;9.43;8.52;;;24.10;99.90;;;;;;5085849;28;20317;-67
2023/08/19 02:53:55;;;;;;;9.18;8.55;;;24.10;99.90;;;;;;5086726;28;20229;-67
2023/08/19 02:56:22;;;;;;;9.30;8.45;;;24.10;99.90;;;;;;5088246;28;20221;-67
2023/08/19 02:58:49;;;;;;;8.57;7.90;;;24.10;99.90;;;;;;5106569;28;20213;-67
2023/08/19 03:01:15;;;;;;;9.38;8.68;;;24.10;99.90;;;;;;5106754;28;20649;-67
2023/08/19 03:03:44;;;;;;;9.65;8.80;;;24.00;99.90;;;;;;5106728;28;20297;-67
2023/08/19 03:06:11;;;;;;;8.98;8.35;;;24.00;99.90;;;;;;5092939;28;20211;-67
2023/08/19 03:08:39;;;;;;;9.77;8.88;;;24.00;99.90;;;;;;5086469;28;20859;-67
2023/08/19 03:11:06;;;;;;;9.73;8.82;;;24.00;99.90;;;;;;5086213;28;20217;-67
2023/08/19 03:13:33;;;;;;;9.52;8.48;;;23.90;99.90;;;;;;5086229;28;20281;-67
2023/08/19 03:16:01;;;;;;;9.13;8.52;;;23.90;99.90;;;;;;5086241;28;20797;-67
2023/08/19 03:18:28;;;;;;;9.90;8.93;;;23.90;99.90;;;;;;5086049;28;20306;-68
2023/08/19 03:20:59;;;;;;;9.20;8.50;;;23.80;99.90;;;;;;5086076;28;20313;-67
2023/08/19 03:23:27;;;;;;;10.43;8.82;;;23.80;99.90;;;;;;5085802;28;20635;-67
2023/08/19 03:25:55;;;;;;;8.85;8.25;;;23.80;99.90;;;;;;5085739;28;20290;-67
2023/08/19 03:28:23;;;;;;;8.90;8.20;;;23.80;99.90;;;;;;5085746;28;20211;-67
2023/08/19 03:30:50;;;;;;;10.98;9.07;;;23.80;99.90;;;;;;5085586;28;20552;-67
2023/08/19 03:33:17;;;;;;;9.18;8.48;;;23.80;99.90;;;;;;5093685;28;20298;-67
2023/08/19 03:35:44;;;;;;;9.13;8.43;;;23.80;99.90;;;;;;5093898;28;20463;-67
2023/08/19 03:38:11;;;;;;;9.95;9.10;;;23.70;99.90;;;;;;5085695;28;20206;-67
2023/08/19 03:40:38;;;;;;;9.05;8.25;;;23.70;99.90;;;;;;5090538;28;20230;-67
2023/08/19 03:43:09;;;;;;;9.20;8.32;;;23.70;99.90;;;;;;5105300;28;20201;-67
2023/08/19 03:45:36;;;;;;;8.93;8.23;;;23.70;99.90;;;;;;5105980;28;20297;-67
2023/08/19 03:48:03;;;;;;;8.95;8.13;;;23.60;99.90;;;;;;5105937;28;20703;-67
2023/08/19 03:50:30;;;;;;;9.43;8.73;;;23.60;99.90;;;;;;5099774;28;20233;-67
2023/08/19 03:52:57;;;;;;;9.38;8.65;;;23.60;99.90;;;;;;5085598;28;20293;-67
2023/08/19 03:55:24;;;;;;;9.25;8.35;;;23.60;99.90;;;;;;5085541;28;20297;-67
2023/08/19 03:57:51;;;;;;;9.10;8.32;;;23.60;99.90;;;;;;5086008;28;20206;-67
2023/08/19 04:00:19;;;;;;;9.30;8.60;;;23.60;99.90;;;;;;5102028;28;20244;-67
2023/08/19 04:02:46;;;;;;;8.70;8.00;;;23.60;99.90;;;;;;5099023;28;20206;-67
2023/08/19 04:05:13;;;;;;;9.52;8.73;;;23.60;99.90;;;;;;5085229;28;20297;-67
2023/08/19 04:07:40;;;;;;;9.52;8.73;;;23.60;99.90;;;;;;5085137;28;20293;-67
2023/08/19 04:10:08;;;;;;;9.95;9.05;;;23.60;99.90;;;;;;5087547;28;20206;-67
2023/08/19 04:12:36;;;;;;;10.00;9.20;;;23.60;99.90;;;;;;5086282;28;20728;-67
2023/08/19 04:15:03;;;;;;;9.27;8.57;;;23.60;99.90;;;;;;5092445;28;20210;-67
2023/08/19 04:17:34;;;;;;;9.55;8.77;;;23.60;99.90;;;;;;5105664;28;21088;-67
2023/08/19 04:20:07;;;;;;;9.60;8.80;;;23.60;99.90;;;;;;5105674;28;20656;-67
2023/08/19 04:22:34;;;;;;;9.13;8.43;;;23.50;99.90;;;;;;5105158;28;20190;-67
2023/08/19 04:25:01;;;;;;;9.63;8.82;;;23.50;99.90;;;;;;5108048;28;20668;-67
2023/08/19 04:27:31;;;;;;;9.30;8.52;;;23.50;99.90;;;;;;5099227;28;20306;-67
2023/08/19 04:29:58;;;;;;;8.35;7.75;;;23.50;99.90;;;;;;5089144;28;20210;-67
2023/08/19 04:32:24;;;;;;;9.32;8.55;;;23.50;99.90;;;;;;5088993;28;20334;-67
2023/08/19 04:34:53;;;;;;;10.00;9.13;;;23.50;99.90;;;;;;5088790;28;20201;-67
2023/08/19 04:37:20;;;;;;;9.40;8.65;;;23.50;99.90;;;;;;5091399;28;20217;-67
2023/08/19 04:39:47;;;;;;;9.55;8.95;;;23.50;99.90;;;;;;5096707;28;22193;-67
2023/08/19 04:42:13;;;;;;;10.38;9.60;;;23.50;99.90;;;;;;5107803;28;20224;-67
2023/08/19 04:44:40;;;;;;;10.38;9.27;;;23.50;99.90;;;;;;5108768;28;20254;-67
2023/08/19 04:47:08;;;;;;;10.07;9.20;;;23.50;99.90;;;;;;5109480;28;20252;-67
2023/08/19 04:49:35;;;;;;;10.30;8.98;;;23.60;99.90;;;;;;5109458;28;20598;-67
2023/08/19 04:52:03;;;;;;;10.48;9.57;;;23.50;99.90;;;;;;5108263;28;20727;-67
2023/08/19 04:54:30;;;;;;;10.07;9.25;;;23.50;99.90;;;;;;5109383;28;20217;-67
2023/08/19 04:56:57;;;;;;;10.73;9.48;;;23.50;99.90;;;;;;5109359;28;20210;-66
2023/08/19 04:59:23;;;;;;;9.52;8.73;;;23.60;99.90;;;;;;5108749;28;20241;-67
2023/08/19 05:01:50;;;;;;;9.82;9.07;;;23.60;99.90;;;;;;5109224;28;20268;-66
2023/08/19 05:04:17;;;;;;;9.68;8.77;;;23.60;99.90;;;;;;5101017;28;20199;-66
2023/08/19 05:06:44;;;;;;;10.27;9.50;;;23.70;99.90;;;;;;5104546;28;20205;-66
2023/08/19 05:09:13;;;;;;;9.85;9.15;;;23.70;99.90;;;;;;5088553;28;20259;-66
2023/08/19 05:11:40;;;;;;;10.98;9.73;;;23.70;99.90;;;;;;5102906;28;20664;-66
2023/08/19 05:14:07;;;;;;;10.18;9.18;;;23.70;99.90;;;;;;5108298;28;20740;-67
2023/08/19 05:16:34;;;;;;;10.43;9.35;;;23.70;99.90;;;;;;5109382;28;20289;-67
2023/08/19 05:19:06;;;;;;;9.70;8.93;;;23.80;99.90;;;;;;5108934;28;20237;-67
2023/08/19 05:21:33;;;;;;;13.25;9.98;;;23.80;99.90;;;;;;5108471;28;20240;-67
2023/08/19 05:24:00;;;;;;;12.73;10.60;;;23.80;99.90;;;;;;5109154;28;20202;-67
2023/08/19 05:26:29;;;;;;;11.15;9.95;;;23.80;99.90;;;;;;5096708;28;20206;-67
2023/08/19 05:28:55;;;;;;;10.75;9.57;;;23.80;99.90;;;;;;5104623;28;20284;-67
2023/08/19 05:31:22;;;;;;;11.25;10.27;;;23.80;99.90;;;;;;5090222;28;20199;-67
2023/08/19 05:33:49;;;;;;;12.23;10.30;;;23.80;99.90;;;;;;5090935;27;20729;-67
2023/08/19 05:36:16;;;;;;;11.38;10.27;;;23.80;99.90;;;;;;5086972;28;20599;-67
2023/08/19 05:38:43;;;;;;;11.43;10.43;;;23.80;99.90;;;;;;5088154;28;20297;-67
2023/08/19 05:41:10;;;;;;;11.45;10.40;;;23.80;99.90;;;;;;5097759;28;20333;-68
2023/08/19 05:43:38;;;;;;;10.80;9.90;;;23.80;99.90;;;;;;5108485;28;20216;-67
2023/08/19 05:46:06;;;;;;;10.88;10.02;;;23.80;99.90;;;;;;5108353;28;20289;-67
2023/08/19 05:48:33;;;;;;;11.70;10.15;;;23.90;99.90;;;;;;5108211;28;20309;-67
2023/08/19 05:51:00;;;;;;;11.45;10.48;;;23.90;99.90;;;;;;5107724;28;20582;-67
2023/08/19 05:53:27;;;;;;;10.77;9.85;;;23.90;99.90;;;;;;5107610;28;20834;-68
2023/08/19 05:55:54;;;;;;;11.90;11.00;;;24.00;99.90;;;;;;5108376;28;20305;-67
2023/08/19 05:58:20;;;;;;;11.85;10.90;;;24.00;99.90;;;;;;5107922;28;20202;-67
2023/08/19 06:00:49;;;;;;;12.20;11.10;;;24.00;99.90;;;;;;5107374;28;20240;-67
2023/08/19 06:03:16;;;;;;;12.55;11.35;;;24.00;99.90;;;;;;5106464;28;20209;-68
2023/08/19 06:05:43;;;;;;;12.80;11.65;;;24.00;99.90;;;;;;5107532;28;21212;-67
2023/08/19 06:08:12;;;;;;;11.23;10.23;;;24.00;99.90;;;;;;5107632;28;20206;-67
2023/08/19 06:10:43;;;;;;;12.05;11.05;;;24.00;99.90;;;;;;5107814;28;20217;-67
2023/08/19 06:13:10;;;;;;;12.80;11.60;;;24.00;99.90;;;;;;5107094;28;20582;-67
2023/08/19 06:15:37;;;;;;;14.00;11.75;;;24.00;99.90;;;;;;5107174;28;20739;-67
2023/08/19 06:18:06;;;;;;;12.57;11.57;;;24.00;99.90;;;;;;5107685;28;20256;-67
2023/08/19 06:20:33;;;;;;;13.07;12.13;;;24.00;99.90;;;;;;5107113;28;20280;-67
2023/08/19 06:23:00;;;;;;;12.82;11.60;;;24.00;99.90;;;;;;5104799;28;20207;-67
2023/08/19 06:25:27;;;;;;;12.93;11.80;;;23.90;99.90;;;;;;5086868;28;20740;-67
2023/08/19 06:27:53;;;;;;;12.82;11.75;;;23.90;99.90;;;;;;5092603;28;20670;-67
2023/08/19 06:30:20;;;;;;;13.60;12.40;;;24.00;99.90;;;;;;5107153;27;20209;-66
2023/08/19 06:32:48;;;;;;;13.15;12.05;;;24.00;99.90;;;;;;5107506;28;20292;-67
2023/08/19 06:35:17;;;;;;;13.30;12.20;;;24.00;99.90;;;;;;5100802;28;20316;-67
2023/08/19 06:37:50;;;;;;;14.13;12.93;;;24.00;99.90;;;;;;5099195;27;20232;-67
2023/08/19 06:40:21;;;;;;;13.70;12.50;;;24.00;99.90;;;;;;5125352;27;20201;-67
2023/08/19 06:42:50;;;;;;;14.15;13.05;;;24.00;99.90;;;;;;5107296;27;20216;-67
2023/08/19 06:45:17;;;;;;;12.82;11.85;;;24.10;99.90;;;;;;5107278;28;20300;-67
2023/08/19 06:47:46;;;;;;;13.77;12.68;;;24.10;99.90;;;;;;5095654;28;20202;-67
2023/08/19 06:50:14;;;;;;;13.82;12.45;;;24.10;99.90;;;;;;5086677;28;20226;-67
2023/08/19 06:52:43;;;;;;;14.20;13.00;;;24.20;99.90;;;;;;5086675;28;20263;-67
2023/08/19 06:55:12;;;;;;;13.80;12.57;;;24.20;99.90;;;;;;5086407;28;20698;-66
2023/08/19 06:57:49;;;;;;;13.15;12.02;;;24.20;99.90;;;;;;5087523;28;20586;-67
2023/08/19 07:00:17;;;;;;;13.57;12.35;;;24.30;99.90;;;;;;5093719;28;20226;-67
2023/08/19 07:02:45;;;;;;;13.30;12.23;;;24.30;99.90;;;;;;5086501;28;20313;-66
2023/08/19 07:05:14;;;;;;;13.20;11.90;;;24.30;99.90;;;;;;5086503;28;20207;-66
2023/08/19 07:07:47;;;;;;;13.15;11.77;;;24.30;99.90;;;;;;5093771;28;20203;-66
2023/08/19 07:10:16;;;;;;;14.15;12.65;;;24.30;99.90;;;;;;5086030;28;20664;-66
2023/08/19 07:12:44;;;;;;;13.45;12.25;;;24.40;99.90;;;;;;5104349;28;20221;-66
2023/08/19 07:15:12;;;;;;;12.73;11.63;;;24.40;99.90;;;;;;5104312;28;20297;-66
2023/08/19 07:17:43;;;;;;;12.95;11.95;;;24.40;99.90;;;;;;5105013;28;20213;-66
2023/08/19 07:20:14;;;;;;;14.75;13.25;;;24.50;99.90;;;;;;5104423;28;20190;-66
2023/08/19 07:22:43;;;;;;;13.32;12.13;;;24.30;99.90;;;;;;5084944;28;20349;-66
2023/08/19 07:25:11;;;;;;;13.52;12.23;;;24.30;99.90;;;;;;5085073;28;20209;-66
2023/08/19 07:27:39;;;;;;;13.07;11.88;;;24.40;99.90;;;;;;5100564;28;20329;-66
2023/08/19 07:30:07;;;;;;;12.55;11.50;;;24.50;99.90;;;;;;5091587;28;20282;-66
2023/08/19 07:32:36;;;;;;;13.82;12.55;;;24.50;99.90;;;;;;5084414;28;20732;-66
2023/08/19 07:35:03;;;;;;;14.23;11.88;;;24.50;99.90;;;;;;5084178;28;20245;-66
2023/08/19 07:37:30;;;;;;;12.95;11.95;;;24.50;99.90;;;;;;5084069;28;20202;-66
2023/08/19 07:39:59;;;;;;;11.90;10.90;;;24.60;99.90;;;;;;5084508;28;20210;-66
2023/08/19 07:42:27;;;;;;;12.80;11.70;;;24.70;99.90;;;;;;5083952;28;21077;-66
2023/08/19 07:44:54;;;;;;;12.38;11.25;;;24.80;99.90;;;;;;5097415;28;20210;-66
2023/08/19 07:47:21;;;;;;;12.60;11.52;;;24.90;99.90;;;;;;5104574;28;20301;-66
2023/08/19 07:49:47;;;;;;;11.68;10.88;;;25.00;99.90;;;;;;5104140;28;20226;-66
2023/08/19 07:52:14;;;;;;;11.93;11.07;;;25.10;99.90;;;;;;5097609;28;20289;-66
2023/08/19 07:54:41;;;;;;;10.45;9.57;;;25.20;99.90;;;;;;5083716;28;20695;-66
2023/08/19 07:57:10;;;;;;;11.75;10.68;;;25.20;99.90;;;;;;5099471;28;20302;-66
2023/08/19 07:59:37;;;;;;;11.10;10.35;;;25.30;99.90;;;;;;5103463;28;20337;-66
2023/08/19 08:02:04;;;;;;;11.10;10.30;;;25.40;99.90;;;;;;5104771;28;20625;-67
2023/08/19 08:04:31;;;;;;;11.93;10.93;;;25.40;99.90;;;;;;5104192;28;20702;-66
2023/08/19 08:06:58;;;;;;;11.98;11.07;;;25.50;99.90;;;;;;5103815;28;20243;-67
2023/08/19 08:09:25;;;;;;;10.73;9.93;;;25.60;99.90;;;;;;5104870;28;20648;-67
2023/08/19 08:11:52;;;;;;;11.48;10.60;;;25.60;99.90;;;;;;5104888;28;20238;-66
2023/08/19 08:14:20;;;;;;;10.45;9.65;;;25.70;99.90;;;;;;5103938;28;20296;-68
2023/08/19 08:16:47;;;;;;;10.38;9.75;;;25.80;99.90;;;;;;5103828;28;20577;-67
2023/08/19 08:19:14;;;;;;;10.25;9.50;;;25.80;99.90;;;;;;5095280;28;20202;-68
2023/08/19 08:21:41;;;;;;;10.63;9.70;;;25.90;99.90;;;;;;5103261;28;20324;-67
2023/08/19 08:24:09;;;;;;;10.13;9.35;;;25.90;99.90;;;;;;5102214;28;21065;-68
2023/08/19 08:26:36;;;;;;;10.00;9.10;;;26.00;99.90;;;;;;5103067;28;20206;-67
2023/08/19 08:29:06;;;;;;;9.57;8.90;;;26.00;99.90;;;;;;5103693;28;20292;-67
2023/08/19 08:31:34;;;;;;;10.05;9.25;;;26.10;99.90;;;;;;5098297;28;20294;-68
2023/08/19 08:34:01;;;;;;;10.18;9.27;;;26.10;99.90;;;;;;5083583;28;20586;-67
2023/08/19 08:36:29;;;;;;;10.00;9.10;;;26.20;99.90;;;;;;5082947;28;20619;-67
2023/08/19 08:38:56;;;;;;;10.23;9.35;;;26.20;99.90;;;;;;5083198;28;20263;-68
2023/08/19 08:41:23;;;;;;;10.52;9.63;;;26.30;99.90;;;;;;5102099;28;20308;-68
2023/08/19 08:43:50;;;;;;;11.10;10.25;;;26.40;99.90;;;;;;5083362;28;20333;-67
2023/08/19 08:46:19;;;;;;;10.30;9.60;;;26.40;99.90;;;;;;5083083;28;20290;-68
2023/08/19 08:48:48;;;;;;;10.35;9.57;;;26.50;99.90;;;;;;5083425;28;20242;-68
2023/08/19 08:51:17;;;;;;;11.55;10.13;;;26.50;99.90;;;;;;5083231;28;20280;-68
2023/08/19 08:53:44;;;;;;;10.77;9.90;;;26.60;99.90;;;;;;5083727;28;20211;-67
2023/08/19 08:56:11;;;;;;;10.85;9.82;;;26.70;99.90;;;;;;5083701;28;20222;-68
2023/08/19 08:58:41;;;;;;;10.48;9.77;;;26.70;99.90;;;;;;5082782;28;20218;-68
2023/08/19 09:01:08;;;;;;;10.18;9.27;;;26.80;99.90;;;;;;5082179;28;20237;-67
2023/08/19 09:03:37;;;;;;;10.05;9.32;;;26.80;99.90;;;;;;5083166;28;20306;-68
2023/08/19 09:06:14;;;;;;;9.85;8.98;;;26.80;99.90;;;;;;5083643;28;20206;-67
2023/08/19 09:08:46;;;;;;;10.00;8.98;;;26.90;99.90;;;;;;5082471;28;20220;-68
2023/08/19 09:11:19;;;;;;;10.10;9.18;;;26.90;99.90;;;;;;5095655;28;20224;-68
2023/08/19 09:13:48;;;;;;;9.32;8.52;;;27.00;99.90;;;;;;5106755;28;20198;-67
2023/08/19 09:16:15;;;;;;;8.95;8.45;;;27.00;99.90;;;;;;5106238;28;20206;-67
2023/08/19 09:18:43;;;;;;;8.73;8.13;;;27.10;99.90;;;;;;5089057;27;20203;-68
2023/08/19 09:21:11;;;;;;;9.30;8.45;;;27.20;99.90;;;;;;5086424;28;20330;-68
2023/08/19 09:23:40;;;;;;;8.88;8.30;;;27.20;99.90;;;;;;5100071;28;20321;-67
2023/08/19 09:26:10;;;;;;;9.40;8.70;;;27.20;99.90;;;;;;5106779;28;20212;-69
2023/08/19 09:28:37;;;;;;;8.93;8.02;;;27.30;99.90;;;;;;5105009;28;20213;-68
2023/08/19 09:31:18;;;;;;;8.00;7.40;;;27.30;99.90;;;;;;5085930;28;20298;-68
2023/08/19 09:33:47;;;;;;;8.25;7.65;;;27.40;99.90;;;;;;5093263;28;20835;-68
2023/08/19 09:36:16;;;;;;;8.40;7.72;;;27.40;99.90;;;;;;5092650;28;20734;-68
2023/08/19 09:38:43;;;;;;;10.80;8.02;;;27.50;99.90;;;;;;5097317;28;20209;-67
2023/08/19 09:41:11;;;;;;;8.23;7.65;;;27.60;99.90;;;;;;5094061;28;20217;-68
2023/08/19 09:43:40;;;;;;;8.35;7.75;;;27.60;99.90;;;;;;5105541;28;20193;-67
2023/08/19 09:46:06;;;;;;;8.10;7.50;;;27.60;99.90;;;;;;5105586;28;20213;-68
2023/08/19 09:48:35;;;;;;;7.93;7.22;;;27.70;99.90;;;;;;5106652;27;20330;-67
2023/08/19 09:51:02;;;;;;;8.30;7.70;;;27.80;99.90;;;;;;5107006;28;20338;-67
2023/08/19 09:53:31;;;;;;;8.77;8.27;;;27.80;99.90;;;;;;5096716;28;20229;-68
2023/08/19 09:55:58;;;;;;;8.85;8.25;;;27.90;99.90;;;;;;5085516;28;20210;-67
2023/08/19 09:58:26;;;;;;;8.90;8.10;;;27.90;99.90;;;;;;5093776;27;20209;-68
2023/08/19 10:00:53;;;;;;;8.75;7.85;;;28.10;99.90;;;;;;5096718;28;20238;-68
2023/08/19 10:03:20;;;;;;;8.40;7.80;;;28.10;99.90;;;;;;5098388;28;20322;-68
2023/08/19 10:05:53;;;;;;;8.85;8.13;;;28.10;99.90;;;;;;5096968;28;20297;-68
2023/08/19 10:08:23;;;;;;;8.52;7.93;;;28.10;99.90;;;;;;5096852;28;20201;-67
2023/08/19 10:10:51;;;;;;;8.90;8.23;;;28.20;99.90;;;;;;5093541;28;20213;-68
2023/08/19 10:13:20;;;;;;;8.32;7.70;;;28.30;99.90;;;;;;5098563;28;20600;-67
2023/08/19 10:15:47;;;;;;;9.13;8.52;;;28.30;99.90;;;;;;5096624;28;20210;-66
2023/08/19 10:18:19;;;;;;;8.77;7.93;;;28.30;99.90;;;;;;5098864;28;20652;-67
2023/08/19 10:20:50;;;;;;;8.23;7.72;;;28.30;99.90;;;;;;5097329;28;20297;-67
2023/08/19 10:23:18;;;;;;;9.25;8.40;;;28.40;99.90;;;;;;5096375;28;20253;-67
2023/08/19 10:25:46;;;;;;;8.60;8.00;;;28.40;99.90;;;;;;5097596;28;20264;-67
2023/08/19 10:28:23;;;;;;;8.68;7.88;;;28.50;99.90;;;;;;5091765;28;20221;-67
2023/08/19 10:31:05;;;;;;;9.48;8.68;;;28.50;99.90;;;;;;5094467;28;20591;-67
2023/08/19 10:33:37;;;;;;;8.95;8.18;;;28.60;99.90;;;;;;5085990;28;20198;-67
2023/08/19 10:36:06;;;;;;;8.88;8.27;;;28.70;99.90;;;;;;5085809;28;20199;-67
2023/08/19 10:38:44;;;;;;;8.57;7.97;;;28.70;99.90;;;;;;5085782;28;20923;-66
2023/08/19 10:41:21;;;;;;;9.73;8.73;;;28.80;99.90;;;;;;5091349;28;20208;-67
2023/08/19 10:43:55;;;;;;;9.30;8.63;;;28.80;99.90;;;;;;5089165;28;20290;-66
2023/08/19 10:46:26;;;;;;;9.15;8.30;;;28.90;99.90;;;;;;5095264;28;20195;-67
2023/08/19 10:48:53;;;;;;;8.25;7.75;;;29.00;99.90;;;;;;5100350;28;20728;-66
2023/08/19 10:51:20;;;;;;;9.27;8.48;;;29.00;99.90;;;;;;5095205;28;20203;-69
2023/08/19 10:53:50;;;;;;;9.35;8.50;;;29.10;99.90;;;;;;5091895;28;20988;-67
2023/08/19 10:56:20;;;;;;;9.90;9.13;;;29.10;99.90;;;;;;5092763;28;20226;-67
2023/08/19 10:58:49;;;;;;;10.93;8.30;;;29.20;99.90;;;;;;5096236;28;20237;-67
2023/08/19 11:01:17;;;;;;;9.70;8.70;;;29.20;99.90;;;;;;5098889;28;20943;-67
2023/08/19 11:03:44;;;;;;;9.50;8.70;;;29.20;99.90;;;;;;5091462;28;20227;-67
2023/08/19 11:06:11;;;;;;;9.32;8.73;;;29.10;99.90;;;;;;5095228;28;20234;-67
2023/08/19 11:08:42;;;;;;;9.30;8.70;;;29.10;99.90;;;;;;5096763;28;20233;-67
2023/08/19 11:11:14;;;;;;;8.80;8.20;;;29.10;99.90;;;;;;5094212;28;20318;-67
2023/08/19 11:13:41;;;;;;;8.07;7.50;;;29.20;99.90;;;;;;5097575;28;20325;-67
2023/08/19 11:16:08;;;;;;;8.57;7.85;;;29.30;99.90;;;;;;5093594;28;20762;-67
2023/08/19 11:18:41;;;;;;;8.57;7.97;;;29.40;99.90;;;;;;5096114;28;20575;-67
2023/08/19 11:21:08;;;;;;;8.57;8.07;;;29.50;99.90;;;;;;5096425;28;20247;-66
2023/08/19 11:23:35;;;;;;;9.02;8.43;;;29.50;99.90;;;;;;5093425;28;20237;-66
2023/08/19 11:26:02;;;;;;;9.85;8.10;;;29.60;99.90;;;;;;5093517;28;20198;-67
2023/08/19 11:28:31;;;;;;;8.68;7.85;;;29.60;99.90;;;;;;5095759;28;20701;-67
2023/08/19 11:30:58;;;;;;;8.63;8.05;;;29.60;99.90;;;;;;5094873;28;20202;-66
2023/08/19 11:33:26;;;;;;;9.23;8.40;;;29.60;99.90;;;;;;5091049;28;20293;-66
2023/08/19 11:35:54;;;;;;;9.27;8.40;;;29.70;99.90;;;;;;5091827;28;20211;-66
2023/08/19 11:38:21;;;;;;;9.35;8.20;;;29.80;99.90;;;;;;5093771;28;20680;-66
2023/08/19 11:40:52;;;;;;;8.85;8.10;;;29.90;99.90;;;;;;5096278;28;20290;-66
2023/08/19 11:43:23;;;;;;;8.40;7.90;;;29.90;99.90;;;;;;5095905;28;20219;-66
2023/08/19 11:45:50;;;;;;;8.75;8.15;;;29.90;99.90;;;;;;5094749;28;20277;-66
2023/08/19 11:48:18;;;;;;;8.65;7.88;;;29.90;99.90;;;;;;5100735;28;20713;-66
2023/08/19 11:50:47;;;;;;;9.32;8.63;;;29.90;99.90;;;;;;5084972;28;20218;-66
2023/08/19 11:53:24;;;;;;;9.15;8.52;;;30.00;99.90;;;;;;5091369;28;20310;-66
2023/08/19 11:55:52;;;;;;;8.32;7.85;;;30.00;99.90;;;;;;5094831;28;20826;-66
2023/08/19 11:58:20;;;;;;;7.97;7.30;;;30.00;99.90;;;;;;5088491;28;20198;-66
2023/08/19 12:00:47;;;;;;;8.63;7.65;;;30.10;99.90;;;;;;5094635;28;20836;-66
2023/08/19 12:03:16;;;;;;;8.10;7.45;;;30.20;99.90;;;;;;5091518;28;20789;-66
2023/08/19 12:05:44;;;;;;;7.75;7.35;;;30.20;99.90;;;;;;5095112;28;20202;-66
2023/08/19 12:08:31;;;;;;;8.88;8.25;;;30.20;99.90;;;;;;5096695;28;20229;-66
2023/08/19 12:10:59;;;;;;;8.43;7.72;;;30.20;99.90;;;;;;5087682;28;20205;-66
2023/08/19 12:13:28;;;;;;;7.97;7.47;;;30.20;99.90;;;;;;5093175;28;20618;-66
2023/08/19 12:15:55;;;;;;;7.05;6.65;;;30.20;99.90;;;;;;5094529;28;20206;-66
2023/08/19 12:18:22;;;;;;;7.65;7.13;;;30.20;99.90;;;;;;5095450;28;20227;-66
2023/08/19 12:20:50;;;;;;;8.65;7.95;;;30.30;99.90;;;;;;5092613;28;20255;-66
2023/08/19 12:23:17;;;;;;;7.28;6.85;;;30.30;99.90;;;;;;5098043;28;20320;-66
2023/08/19 12:25:51;;;;;;;7.05;6.45;;;30.30;99.90;;;;;;5091643;28;20199;-66
2023/08/19 12:28:18;;;;;;;6.65;6.07;;;30.50;99.90;;;;;;5084570;28;20190;-67
2023/08/19 12:30:45;;;;;;;7.40;6.80;;;30.50;99.90;;;;;;5084292;28;20199;-66
2023/08/19 12:33:13;;;;;;;6.38;5.97;;;30.50;99.90;;;;;;5084318;28;20195;-67
2023/08/19 12:35:41;;;;;;;8.95;7.05;;;30.50;99.90;;;;;;5084215;28;20230;-67
2023/08/19 12:38:09;;;;;;;6.80;6.40;;;30.60;99.90;;;;;;5084018;28;20206;-66
2023/08/19 12:40:37;;;;;;;6.85;6.35;;;30.60;99.90;;;;;;5086278;28;20230;-66
2023/08/19 12:43:05;;;;;;;7.10;6.50;;;30.60;99.90;;;;;;5093088;28;20628;-66
2023/08/19 12:45:32;;;;;;;7.05;6.55;;;30.70;99.90;;;;;;5096583;28;20202;-66